createdAt,value
2023-03-15T00:01:28.729Z,8.91
2023-03-15T00:03:57.807Z,8.92
2023-03-15T00:06:26.040Z,8.66
2023-03-15T00:08:54.639Z,8.93
2023-03-15T00:11:26.827Z,8.89
2023-03-15T00:14:00.306Z,8.72
2023-03-15T00:16:28.254Z,8.83
2023-03-15T00:19:03.321Z,8.84
2023-03-15T00:21:31.943Z,8.82
2023-03-15T00:23:59.780Z,8.79
2023-03-15T00:26:29.647Z,8.67
2023-03-15T00:28:58.217Z,8.61
2023-03-15T00:31:32.702Z,8.63
2023-03-15T00:34:00.885Z,8.56
2023-03-15T00:36:29.474Z,8.32
2023-03-15T00:38:58.050Z,8.34
2023-03-15T00:41:26.741Z,8.15
2023-03-15T00:43:56.098Z,8.15
2023-03-15T00:46:24.585Z,8.13
2023-03-15T00:48:52.960Z,8.03
2023-03-15T00:51:22.389Z,8.05
2023-03-15T00:53:52.723Z,8.02
2023-03-15T00:56:26.885Z,7.87
2023-03-15T00:58:56.386Z,7.68
2023-03-15T01:01:28.379Z,7.72
2023-03-15T01:03:57.382Z,7.66
2023-03-15T01:06:27.711Z,7.66
2023-03-15T01:08:57.218Z,7.75
2023-03-15T01:11:27.543Z,7.61
2023-03-15T01:13:57.777Z,7.57
2023-03-15T01:16:27.862Z,7.69
2023-03-15T01:18:56.831Z,7.52
2023-03-15T01:21:24.881Z,7.51
2023-03-15T01:23:54.302Z,7.53
2023-03-15T01:26:24.531Z,7.47
2023-03-15T01:28:52.832Z,7.36
2023-03-15T01:31:23.292Z,7.22
2023-03-15T01:33:52.061Z,7.31
2023-03-15T01:36:20.400Z,7.15
2023-03-15T01:38:49.936Z,7.04
2023-03-15T01:41:22.501Z,7.23
2023-03-15T01:43:51.246Z,7.16
2023-03-15T01:46:35.298Z,7.19
2023-03-15T01:49:23.208Z,7.07
2023-03-15T01:52:07.628Z,7.16
2023-03-15T01:54:59.919Z,7.17
2023-03-15T01:57:46.374Z,7.10
2023-03-15T02:00:16.896Z,7.00
2023-03-15T02:03:27.283Z,7.00
2023-03-15T02:06:01.659Z,6.89
2023-03-15T02:08:56.750Z,6.92
2023-03-15T02:11:26.735Z,6.86
2023-03-15T02:13:58.454Z,6.99
2023-03-15T02:16:26.939Z,6.85
2023-03-15T02:19:00.737Z,7.02
2023-03-15T02:22:09.842Z,7.06
2023-03-15T02:24:53.094Z,7.23
2023-03-15T02:27:30.931Z,7.13
2023-03-15T02:30:00.230Z,7.44
2023-03-15T02:32:30.501Z,7.46
2023-03-15T02:34:58.993Z,7.32
2023-03-15T02:37:26.979Z,7.38
2023-03-15T02:39:56.128Z,7.62
2023-03-15T02:42:25.141Z,7.52
2023-03-15T02:44:55.071Z,7.50
2023-03-15T02:47:25.825Z,7.59
2023-03-15T02:49:54.127Z,7.45
2023-03-15T02:52:22.723Z,7.42
2023-03-15T02:54:51.341Z,7.36
2023-03-15T02:57:19.929Z,7.58
2023-03-15T02:59:51.206Z,7.43
2023-03-15T03:02:26.376Z,7.21
2023-03-15T03:04:54.964Z,7.29
2023-03-15T03:07:23.838Z,7.26
2023-03-15T03:10:02.686Z,7.07
2023-03-15T03:12:39.855Z,6.97
2023-03-15T03:15:10.614Z,6.93
2023-03-15T03:17:40.253Z,6.88
2023-03-15T03:20:10.601Z,6.74
2023-03-15T03:22:45.213Z,6.84
2023-03-15T03:25:13.698Z,6.81
2023-03-15T03:27:41.821Z,6.94
2023-03-15T03:30:12.797Z,6.76
2023-03-15T03:32:44.963Z,6.58
2023-03-15T03:35:16.226Z,6.63
2023-03-15T03:37:44.888Z,6.42
2023-03-15T03:40:20.447Z,6.42
2023-03-15T03:42:49.812Z,6.37
2023-03-15T03:45:22.199Z,6.53
2023-03-15T03:47:55.567Z,6.32
2023-03-15T03:50:23.676Z,6.47
2023-03-15T03:52:56.182Z,6.25
2023-03-15T03:55:28.577Z,6.35
2023-03-15T03:57:57.123Z,6.41
2023-03-15T04:00:57.403Z,6.35
2023-03-15T04:03:28.785Z,6.34
2023-03-15T04:06:06.027Z,6.36
2023-03-15T04:08:39.358Z,6.31
2023-03-15T04:11:09.355Z,6.36
2023-03-15T04:13:41.729Z,6.48
2023-03-15T04:16:10.514Z,6.40
2023-03-15T04:18:56.558Z,6.54
2023-03-15T04:21:25.690Z,6.58
2023-03-15T04:24:00.180Z,6.68
2023-03-15T04:26:47.027Z,6.79
2023-03-15T04:29:34.775Z,6.89
2023-03-15T04:32:19.113Z,6.92
2023-03-15T04:34:56.289Z,6.95
2023-03-15T04:37:38.162Z,7.06
2023-03-15T04:40:20.470Z,7.17
2023-03-15T04:43:09.028Z,7.24
2023-03-15T04:45:52.159Z,7.24
2023-03-15T04:48:37.336Z,7.17
2023-03-15T04:51:12.449Z,7.19
2023-03-15T04:53:51.079Z,7.30
2023-03-15T04:56:37.783Z,7.41
2023-03-15T04:59:25.064Z,7.43
2023-03-15T05:02:12.776Z,7.57
2023-03-15T05:05:01.810Z,7.58
2023-03-15T05:08:49.150Z,7.74
2023-03-15T05:12:31.524Z,7.77
2023-03-15T05:16:14.599Z,7.61
2023-03-15T05:19:04.314Z,7.75
2023-03-15T05:22:02.597Z,7.76
2023-03-15T05:24:57.875Z,7.81
2023-03-15T05:27:53.226Z,7.89
2023-03-15T05:30:36.680Z,8.19
2023-03-15T05:33:27.495Z,8.20
2023-03-15T05:36:32.028Z,8.30
2023-03-15T05:39:23.241Z,8.21
2023-03-15T05:41:57.526Z,8.09
2023-03-15T05:44:37.713Z,8.32
2023-03-15T05:47:33.220Z,8.34
2023-03-15T05:50:02.761Z,8.52
2023-03-15T05:52:46.445Z,8.66
2023-03-15T05:55:40.067Z,8.63
2023-03-15T05:58:30.896Z,8.79
2023-03-15T06:01:08.397Z,8.93
2023-03-15T06:04:00.903Z,8.94
2023-03-15T06:06:34.033Z,9.07
2023-03-15T06:09:04.608Z,9.23
2023-03-15T06:11:34.762Z,9.45
2023-03-15T06:14:04.542Z,9.47
2023-03-15T06:16:53.702Z,9.45
2023-03-15T06:19:25.297Z,9.64
2023-03-15T06:21:55.510Z,9.50
2023-03-15T06:24:32.499Z,9.56
2023-03-15T06:27:01.886Z,9.58
2023-03-15T06:29:30.431Z,9.47
2023-03-15T06:32:00.912Z,9.84
2023-03-15T06:34:30.494Z,9.95
2023-03-15T06:37:02.066Z,9.96
2023-03-15T06:39:34.894Z,9.91
2023-03-15T06:42:04.755Z,10.08
2023-03-15T06:44:37.592Z,10.01
2023-03-15T06:47:10.070Z,10.24
2023-03-15T06:49:42.315Z,10.11
2023-03-15T06:52:12.783Z,10.16
2023-03-15T06:54:40.760Z,10.47
2023-03-15T06:57:10.325Z,10.29
2023-03-15T06:59:38.877Z,10.48
2023-03-15T07:02:08.420Z,10.48
2023-03-15T07:04:37.610Z,10.47
2023-03-15T07:07:05.445Z,10.50
2023-03-15T07:09:33.760Z,10.52
2023-03-15T07:12:02.217Z,10.53
2023-03-15T07:14:30.789Z,10.51
2023-03-15T07:16:58.678Z,10.72
2023-03-15T07:19:27.149Z,10.84
2023-03-15T07:21:57.707Z,11.07
2023-03-15T07:24:27.529Z,11.26
2023-03-15T07:26:56.949Z,11.02
2023-03-15T07:29:25.831Z,11.06
2023-03-15T07:31:54.104Z,11.10
2023-03-15T07:34:23.038Z,11.21
2023-03-15T07:36:51.197Z,11.01
2023-03-15T07:39:20.813Z,11.24
2023-03-15T07:41:50.625Z,11.36
2023-03-15T07:44:24.227Z,11.40
2023-03-15T07:46:52.106Z,11.20
2023-03-15T07:49:21.065Z,11.39
2023-03-15T07:51:49.026Z,11.74
2023-03-15T07:54:17.017Z,11.76
2023-03-15T07:56:46.205Z,11.65
2023-03-15T07:59:14.097Z,11.86
2023-03-15T08:01:44.378Z,11.68
2023-03-15T08:04:13.436Z,11.99
2023-03-15T08:06:47.267Z,12.21
2023-03-15T08:09:15.083Z,12.04
2023-03-15T08:11:44.655Z,11.87
2023-03-15T08:14:14.172Z,11.65
2023-03-15T08:16:44.107Z,11.61
2023-03-15T08:19:18.351Z,11.84
2023-03-15T08:21:49.149Z,11.80
2023-03-15T08:24:17.152Z,11.73
2023-03-15T08:26:46.328Z,12.12
2023-03-15T08:29:16.143Z,11.75
2023-03-15T08:31:44.289Z,12.13
2023-03-15T08:34:12.796Z,12.21
2023-03-15T08:36:56.563Z,12.30
2023-03-15T08:39:25.051Z,12.23
2023-03-15T08:41:54.214Z,12.43
2023-03-15T08:44:27.523Z,12.09
2023-03-15T08:46:56.100Z,12.25
2023-03-15T08:49:24.912Z,12.20
2023-03-15T08:51:56.168Z,12.27
2023-03-15T08:54:24.368Z,12.73
2023-03-15T08:56:55.810Z,12.63
2023-03-15T08:59:31.828Z,12.69
2023-03-15T09:02:02.248Z,12.81
2023-03-15T09:04:34.311Z,12.15
2023-03-15T09:07:02.641Z,12.66
2023-03-15T09:09:37.742Z,12.79
2023-03-15T09:12:06.327Z,12.79
2023-03-15T09:14:34.372Z,13.03
2023-03-15T09:17:06.360Z,12.80
2023-03-15T09:19:34.753Z,12.84
2023-03-15T09:22:17.006Z,12.95
2023-03-15T09:24:52.887Z,12.88
2023-03-15T09:27:21.145Z,12.82
2023-03-15T09:29:50.359Z,13.07
2023-03-15T09:32:18.850Z,13.33
2023-03-15T09:34:46.722Z,13.51
2023-03-15T09:37:14.576Z,13.30
2023-03-15T09:39:43.406Z,13.76
2023-03-15T09:42:18.858Z,13.51
2023-03-15T09:45:01.109Z,13.66
2023-03-15T09:47:51.927Z,13.62
2023-03-15T09:50:36.039Z,13.61
2023-03-15T09:53:09.594Z,13.71
2023-03-15T09:55:38.740Z,13.74
2023-03-15T09:58:13.087Z,14.04
2023-03-15T10:01:13.768Z,14.06
2023-03-15T10:03:51.398Z,14.13
2023-03-15T10:06:29.839Z,14.30
2023-03-15T10:08:58.998Z,14.41
2023-03-15T10:12:05.848Z,13.73
2023-03-15T10:15:05.524Z,13.99
2023-03-15T10:17:52.405Z,13.91
2023-03-15T10:20:42.169Z,14.12
2023-03-15T10:23:13.239Z,14.27
2023-03-15T10:25:41.462Z,14.33
2023-03-15T10:28:31.323Z,14.43
2023-03-15T10:31:13.867Z,14.44
2023-03-15T10:33:50.498Z,14.75
2023-03-15T10:36:23.740Z,14.63
2023-03-15T10:38:51.812Z,15.04
2023-03-15T10:41:46.841Z,15.14
2023-03-15T10:44:26.718Z,14.46
2023-03-15T10:47:16.096Z,14.81
2023-03-15T10:49:58.596Z,14.31
2023-03-15T10:52:35.780Z,14.88
2023-03-15T10:55:12.047Z,14.91
2023-03-15T10:57:42.654Z,14.22
2023-03-15T11:00:43.999Z,14.71
2023-03-15T11:03:23.097Z,15.07
2023-03-15T11:05:55.222Z,15.38
2023-03-15T11:08:37.671Z,15.36
2023-03-15T11:11:05.744Z,14.90
2023-03-15T11:13:41.129Z,14.69
2023-03-15T11:16:15.476Z,15.21
2023-03-15T11:19:17.131Z,15.17
2023-03-15T11:21:45.885Z,15.16
2023-03-15T11:24:27.205Z,15.34
2023-03-15T11:26:56.984Z,15.40
2023-03-15T11:29:33.236Z,15.67
2023-03-15T11:32:02.744Z,15.40
2023-03-15T11:34:39.516Z,15.32
2023-03-15T11:37:21.706Z,15.94
2023-03-15T11:40:11.602Z,15.95
2023-03-15T11:42:58.235Z,16.03
2023-03-15T11:45:36.533Z,15.75
2023-03-15T11:48:27.173Z,16.04
2023-03-15T11:50:55.534Z,15.62
2023-03-15T11:53:25.545Z,15.96
2023-03-15T11:55:54.653Z,16.38
2023-03-15T11:58:35.869Z,16.34
2023-03-15T12:01:04.317Z,16.25
2023-03-15T12:03:35.596Z,15.79
2023-03-15T12:06:21.500Z,15.99
2023-03-15T12:09:13.483Z,15.96
2023-03-15T12:11:45.822Z,16.16
2023-03-15T12:14:43.829Z,16.23
2023-03-15T12:17:29.719Z,16.12
2023-03-15T12:20:12.404Z,16.32
2023-03-15T12:22:43.862Z,16.62
2023-03-15T12:25:17.007Z,16.80
2023-03-15T12:27:51.365Z,16.88
2023-03-15T12:30:30.386Z,17.08
2023-03-15T12:32:58.664Z,16.92
2023-03-15T12:35:30.521Z,17.28
2023-03-15T12:37:58.974Z,17.14
2023-03-15T12:40:39.341Z,17.25
2023-03-15T12:43:08.488Z,16.95
2023-03-15T12:45:41.807Z,16.74
2023-03-15T12:48:13.016Z,16.59
2023-03-15T12:51:04.614Z,16.61
2023-03-15T12:53:37.472Z,16.36
2023-03-15T12:56:42.345Z,16.30
2023-03-15T12:59:49.129Z,16.22
2023-03-15T13:02:41.843Z,16.10
2023-03-15T13:05:47.078Z,16.09
2023-03-15T13:08:17.346Z,16.08
2023-03-15T13:11:15.181Z,16.11
2023-03-15T13:14:14.262Z,16.04
2023-03-15T13:17:02.372Z,15.76
2023-03-15T13:19:38.500Z,15.85
2023-03-15T13:22:15.243Z,15.67
2023-03-15T13:24:50.076Z,15.51
2023-03-15T13:27:36.772Z,15.61
2023-03-15T13:30:36.791Z,15.62
2023-03-15T13:33:08.653Z,15.62
2023-03-15T13:35:48.401Z,15.53
2023-03-15T13:38:45.676Z,15.48
2023-03-15T13:41:23.399Z,15.44
2023-03-15T13:43:53.247Z,15.49
2023-03-15T13:46:25.703Z,15.30
2023-03-15T13:48:54.717Z,15.27
2023-03-15T13:51:31.176Z,15.48
2023-03-15T13:54:07.201Z,15.53
2023-03-15T13:56:48.522Z,15.58
2023-03-15T13:59:18.116Z,15.62
2023-03-15T14:01:46.938Z,15.52
2023-03-15T14:04:17.389Z,15.44
2023-03-15T14:06:48.014Z,15.25
2023-03-15T14:09:29.212Z,15.45
2023-03-15T14:12:19.751Z,15.51
2023-03-15T14:14:53.304Z,15.56
2023-03-15T14:17:27.454Z,15.48
2023-03-15T14:20:07.217Z,15.55
2023-03-15T14:22:36.812Z,15.52
2023-03-15T14:25:19.636Z,15.52
2023-03-15T14:27:48.137Z,15.56
2023-03-15T14:30:23.652Z,15.57
2023-03-15T14:32:53.674Z,15.66
2023-03-15T14:35:25.587Z,15.66
2023-03-15T14:38:20.174Z,15.55
2023-03-15T14:40:48.951Z,15.62
2023-03-15T14:43:17.055Z,15.59
2023-03-15T14:45:48.709Z,15.54
2023-03-15T14:48:30.232Z,15.45
2023-03-15T14:50:57.871Z,15.31
2023-03-15T14:53:26.412Z,15.16
2023-03-15T14:55:56.605Z,15.24
2023-03-15T14:58:25.142Z,15.09
2023-03-15T15:00:56.061Z,15.04
2023-03-15T15:03:32.176Z,15.07
2023-03-15T15:06:01.105Z,14.89
2023-03-15T15:08:28.996Z,14.93
2023-03-15T15:10:57.033Z,14.90
2023-03-15T15:13:27.037Z,14.89
2023-03-15T15:15:56.709Z,14.82
2023-03-15T15:18:25.903Z,14.72
2023-03-15T15:20:56.396Z,14.45
2023-03-15T15:23:30.654Z,14.46
2023-03-15T15:26:06.086Z,14.46
2023-03-15T15:28:37.177Z,14.42
2023-03-15T15:31:07.652Z,14.23
2023-03-15T15:33:35.777Z,14.21
2023-03-15T15:36:10.414Z,13.99
2023-03-15T15:38:40.615Z,13.80
2023-03-15T15:41:47.652Z,13.90
2023-03-15T15:44:20.551Z,13.50
2023-03-15T15:46:49.113Z,13.67
2023-03-15T15:49:17.230Z,13.44
2023-03-15T15:51:49.284Z,13.33
2023-03-15T15:54:19.296Z,13.42
2023-03-15T15:56:52.644Z,13.40
2023-03-15T15:59:20.643Z,13.32
2023-03-15T16:02:00.132Z,13.24
2023-03-15T16:04:29.900Z,13.12
2023-03-15T16:07:02.213Z,13.06
2023-03-15T16:09:32.712Z,12.93
2023-03-15T16:12:04.104Z,12.96
2023-03-15T16:14:33.001Z,12.94
2023-03-15T16:17:01.657Z,12.79
2023-03-15T16:19:31.758Z,12.81
2023-03-15T16:22:00.463Z,12.71
2023-03-15T16:24:30.541Z,12.47
2023-03-15T16:27:03.877Z,12.55
2023-03-15T16:29:39.848Z,12.55
2023-03-15T16:32:18.008Z,12.49
2023-03-15T16:34:48.544Z,12.37
2023-03-15T16:37:35.222Z,12.43
2023-03-15T16:40:10.492Z,12.34
2023-03-15T16:42:39.546Z,12.34
2023-03-15T16:45:14.566Z,12.02
2023-03-15T16:47:42.942Z,12.10
2023-03-15T16:50:11.774Z,11.98
2023-03-15T16:52:42.586Z,12.06
2023-03-15T16:55:15.658Z,12.06
2023-03-15T16:57:47.354Z,12.10
2023-03-15T17:00:20.911Z,11.90
2023-03-15T17:02:53.442Z,11.80
2023-03-15T17:05:24.690Z,11.63
2023-03-15T17:07:54.077Z,11.69
2023-03-15T17:10:32.365Z,11.61
2023-03-15T17:13:03.356Z,11.50
2023-03-15T17:15:32.927Z,11.54
2023-03-15T17:18:02.945Z,11.52
2023-03-15T17:20:38.307Z,11.49
2023-03-15T17:23:07.805Z,11.46
2023-03-15T17:25:36.023Z,11.43
2023-03-15T17:28:06.253Z,11.26
2023-03-15T17:30:36.049Z,11.31
2023-03-15T17:33:05.628Z,11.32
2023-03-15T17:35:39.154Z,11.23
2023-03-15T17:38:07.570Z,11.16
2023-03-15T17:40:36.489Z,11.03
2023-03-15T17:43:04.726Z,10.99
2023-03-15T17:45:33.474Z,10.95
2023-03-15T17:48:01.854Z,10.90
2023-03-15T17:50:32.315Z,10.90
2023-03-15T17:53:02.523Z,10.85
2023-03-15T17:55:34.692Z,10.85
2023-03-15T17:58:06.326Z,10.78
2023-03-15T18:00:34.486Z,10.72
2023-03-15T18:03:02.288Z,10.76
2023-03-15T18:05:30.783Z,10.78
2023-03-15T18:08:05.459Z,10.73
2023-03-15T18:10:38.709Z,10.63
2023-03-15T18:13:07.709Z,10.52
2023-03-15T18:15:38.066Z,10.64
2023-03-15T18:18:08.234Z,10.63
2023-03-15T18:20:37.077Z,10.59
2023-03-15T18:23:08.269Z,10.60
2023-03-15T18:25:36.666Z,10.58
2023-03-15T18:28:05.807Z,10.58
2023-03-15T18:30:34.262Z,10.63
2023-03-15T18:33:04.213Z,10.61
2023-03-15T18:35:33.774Z,10.57
2023-03-15T18:38:02.586Z,10.59
2023-03-15T18:40:32.665Z,10.58
2023-03-15T18:43:03.713Z,10.54
2023-03-15T18:45:36.343Z,10.52
2023-03-15T18:48:04.856Z,10.53
2023-03-15T18:50:33.939Z,10.51
2023-03-15T18:53:04.003Z,10.49
2023-03-15T18:55:33.973Z,10.54
2023-03-15T18:58:02.114Z,10.61
2023-03-15T19:00:36.247Z,10.66
2023-03-15T19:03:04.798Z,10.66
2023-03-15T19:05:36.360Z,10.61
2023-03-15T19:08:04.251Z,10.66
2023-03-15T19:10:32.439Z,10.63
2023-03-15T19:13:01.236Z,10.62
2023-03-15T19:15:30.381Z,10.67
2023-03-15T19:17:58.475Z,10.65
2023-03-15T19:20:32.960Z,10.64
2023-03-15T19:23:02.181Z,10.63
2023-03-15T19:25:30.452Z,10.57
2023-03-15T19:28:02.664Z,10.56
2023-03-15T19:30:33.079Z,10.55
2023-03-15T19:33:01.758Z,10.55
2023-03-15T19:35:30.998Z,10.58
2023-03-15T19:38:00.650Z,10.57
2023-03-15T19:40:29.291Z,10.44
2023-03-15T19:42:57.985Z,10.42
2023-03-15T19:45:26.484Z,10.47
2023-03-15T19:47:57.456Z,10.49
2023-03-15T19:50:31.235Z,10.43
2023-03-15T19:53:02.021Z,10.49
2023-03-15T19:55:32.102Z,10.55
2023-03-15T19:57:59.763Z,10.45
2023-03-15T20:00:27.718Z,10.44
2023-03-15T20:02:56.167Z,10.30
2023-03-15T20:05:25.924Z,10.41
2023-03-15T20:07:54.684Z,10.47
2023-03-15T20:10:24.054Z,10.52
2023-03-15T20:12:59.212Z,10.58
2023-03-15T20:15:29.390Z,10.59
2023-03-15T20:17:57.906Z,10.57
2023-03-15T20:20:26.346Z,10.40
2023-03-15T20:22:55.526Z,10.40
2023-03-15T20:25:25.582Z,10.43
2023-03-15T20:27:54.050Z,10.47
2023-03-15T20:30:23.144Z,10.45
2023-03-15T20:32:55.036Z,10.49
2023-03-15T20:35:23.483Z,10.38
2023-03-15T20:37:54.138Z,10.32
2023-03-15T20:40:22.378Z,10.25
2023-03-15T20:42:57.151Z,10.31
2023-03-15T20:45:24.954Z,10.29
2023-03-15T20:47:53.480Z,10.14
2023-03-15T20:50:23.560Z,10.12
2023-03-15T20:52:52.328Z,10.25
2023-03-15T20:55:21.529Z,10.30
2023-03-15T20:57:49.786Z,10.30
2023-03-15T21:00:20.465Z,10.35
2023-03-15T21:02:49.913Z,10.30
2023-03-15T21:05:19.223Z,10.33
2023-03-15T21:07:47.638Z,10.31
2023-03-15T21:10:17.143Z,10.28
2023-03-15T21:12:47.345Z,10.24
2023-03-15T21:15:19.863Z,10.24
2023-03-15T21:17:49.889Z,10.17
2023-03-15T21:20:18.637Z,10.18
2023-03-15T21:22:53.853Z,10.10
2023-03-15T21:25:21.920Z,10.05
2023-03-15T21:27:49.755Z,9.98
2023-03-15T21:30:19.268Z,10.07
2023-03-15T21:32:48.072Z,10.17
2023-03-15T21:35:22.474Z,10.22
2023-03-15T21:37:50.873Z,10.15
2023-03-15T21:40:18.761Z,10.04
2023-03-15T21:42:48.029Z,9.85
2023-03-15T21:45:16.831Z,9.68
2023-03-15T21:47:53.080Z,9.82
2023-03-15T21:50:23.616Z,9.84
2023-03-15T21:52:52.139Z,9.90
2023-03-15T21:55:21.107Z,10.00
2023-03-15T21:57:48.953Z,10.07
2023-03-15T22:00:19.925Z,10.06
2023-03-15T22:02:48.245Z,10.06
2023-03-15T22:05:17.041Z,10.10
2023-03-15T22:07:46.901Z,10.21
2023-03-15T22:10:15.938Z,10.09
2023-03-15T22:12:44.425Z,9.97
2023-03-15T22:15:13.683Z,9.87
2023-03-15T22:17:42.300Z,9.87
2023-03-15T22:20:17.005Z,9.79
2023-03-15T22:22:46.543Z,9.47
2023-03-15T22:25:15.003Z,9.16
2023-03-15T22:27:43.537Z,9.41
2023-03-15T22:30:16.135Z,9.74
2023-03-15T22:32:48.383Z,9.55
2023-03-15T22:35:16.732Z,9.74
2023-03-15T22:37:44.918Z,9.85
2023-03-15T22:40:14.821Z,9.94
2023-03-15T22:42:43.377Z,9.94
2023-03-15T22:45:12.148Z,10.02
2023-03-15T22:47:41.885Z,10.10
2023-03-15T22:50:13.578Z,10.21
2023-03-15T22:52:42.233Z,10.26
2023-03-15T22:55:11.979Z,10.24
2023-03-15T22:57:43.075Z,10.11
2023-03-15T23:00:14.178Z,10.16
2023-03-15T23:02:42.989Z,10.19
2023-03-15T23:05:12.717Z,10.19
2023-03-15T23:07:40.989Z,10.24
2023-03-15T23:10:11.748Z,10.26
2023-03-15T23:12:41.543Z,10.15
2023-03-15T23:15:09.904Z,10.13
2023-03-15T23:17:38.531Z,10.08
2023-03-15T23:20:07.644Z,10.10
2023-03-15T23:22:37.971Z,10.18
2023-03-15T23:25:06.260Z,10.16
2023-03-15T23:27:34.326Z,10.09
2023-03-15T23:30:05.672Z,10.12
2023-03-15T23:32:38.040Z,10.11
2023-03-15T23:35:13.050Z,10.05
2023-03-15T23:37:43.316Z,9.91
2023-03-15T23:40:14.058Z,9.70
2023-03-15T23:42:45.520Z,9.86
2023-03-15T23:45:15.509Z,9.93
2023-03-15T23:47:47.222Z,10.03
2023-03-15T23:50:17.586Z,10.01
2023-03-15T23:52:45.610Z,10.08
2023-03-15T23:55:13.643Z,10.10
2023-03-15T23:57:43.509Z,10.08
